createdAt,value
2022-11-29T00:01:39.361Z,2.90
2022-11-29T00:04:06.939Z,2.90
2022-11-29T00:06:35.802Z,2.90
2022-11-29T00:09:09.314Z,2.90
2022-11-29T00:11:57.017Z,2.90
2022-11-29T00:14:25.787Z,2.90
2022-11-29T00:17:02.139Z,2.90
2022-11-29T00:19:33.346Z,2.80
2022-11-29T00:22:00.972Z,2.70
2022-11-29T00:24:28.768Z,2.70
2022-11-29T00:26:55.660Z,2.70
2022-11-29T00:29:22.561Z,2.70
2022-11-29T00:31:49.511Z,2.70
2022-11-29T00:34:16.441Z,2.70
2022-11-29T00:36:43.345Z,2.60
2022-11-29T00:39:12.202Z,2.50
2022-11-29T00:41:39.672Z,2.50
2022-11-29T00:44:06.837Z,2.50
2022-11-29T00:46:34.090Z,2.50
2022-11-29T00:49:01.057Z,2.50
2022-11-29T00:51:28.034Z,2.50
2022-11-29T00:53:54.992Z,2.50
2022-11-29T00:56:22.059Z,2.50
2022-11-29T00:58:49.436Z,2.60
2022-11-29T01:01:16.542Z,2.60
2022-11-29T01:03:43.559Z,2.60
2022-11-29T01:06:13.815Z,2.60
2022-11-29T01:08:41.599Z,2.50
2022-11-29T01:11:24.806Z,2.50
2022-11-29T01:13:57.362Z,2.50
2022-11-29T01:16:25.006Z,2.50
2022-11-29T01:18:52.132Z,2.50
2022-11-29T01:21:22.897Z,2.40
2022-11-29T01:23:54.060Z,2.40
2022-11-29T01:26:25.731Z,2.40
2022-11-29T01:28:55.773Z,2.40
2022-11-29T01:31:36.364Z,2.40
2022-11-29T01:34:05.378Z,2.40
2022-11-29T01:36:32.617Z,2.40
2022-11-29T01:39:02.340Z,2.40
2022-11-29T01:41:33.210Z,2.50
2022-11-29T01:44:28.480Z,2.40
2022-11-29T01:46:56.351Z,2.40
2022-11-29T01:49:28.746Z,2.40
2022-11-29T01:52:11.032Z,2.30
2022-11-29T01:54:43.344Z,2.30
2022-11-29T01:57:11.780Z,2.20
2022-11-29T01:59:48.784Z,2.20
2022-11-29T02:02:30.383Z,2.20
2022-11-29T02:04:59.563Z,2.20
2022-11-29T02:07:26.715Z,2.20
2022-11-29T02:09:53.737Z,2.20
2022-11-29T02:12:58.648Z,2.20
2022-11-29T02:15:37.489Z,2.10
2022-11-29T02:18:16.215Z,2.00
2022-11-29T02:21:12.654Z,2.00
2022-11-29T02:24:16.889Z,2.10
2022-11-29T02:27:05.160Z,2.00
2022-11-29T02:30:02.347Z,2.00
2022-11-29T02:32:57.215Z,2.00
2022-11-29T02:35:54.195Z,2.00
2022-11-29T02:39:16.556Z,2.00
2022-11-29T02:42:06.565Z,2.00
2022-11-29T02:45:07.304Z,2.00
2022-11-29T02:47:54.085Z,2.00
2022-11-29T02:50:41.318Z,2.00
2022-11-29T02:53:40.820Z,2.00
2022-11-29T02:56:34.456Z,2.00
2022-11-29T02:59:39.477Z,2.00
2022-11-29T03:02:48.946Z,2.00
2022-11-29T03:05:57.951Z,2.00
2022-11-29T03:08:54.338Z,1.90
2022-11-29T03:11:36.166Z,1.80
2022-11-29T03:14:27.423Z,1.80
2022-11-29T03:16:57.426Z,1.80
2022-11-29T03:20:01.850Z,1.90
2022-11-29T03:22:48.325Z,1.90
2022-11-29T03:25:44.376Z,1.90
2022-11-29T03:28:41.998Z,1.90
2022-11-29T03:31:46.980Z,1.90
2022-11-29T03:34:38.940Z,1.90
2022-11-29T03:38:17.889Z,1.90
2022-11-29T03:41:09.241Z,1.90
2022-11-29T03:44:25.661Z,1.80
2022-11-29T03:47:07.910Z,1.90
2022-11-29T03:49:45.985Z,1.90
2022-11-29T03:52:41.496Z,1.80
2022-11-29T03:55:32.719Z,1.80
2022-11-29T03:58:23.654Z,1.80
2022-11-29T04:00:56.734Z,1.80
2022-11-29T04:03:57.341Z,1.80
2022-11-29T04:06:54.715Z,1.70
2022-11-29T04:09:42.630Z,1.70
2022-11-29T04:13:06.071Z,1.70
2022-11-29T04:15:57.832Z,1.70
2022-11-29T04:18:40.529Z,1.70
2022-11-29T04:21:47.866Z,1.70
2022-11-29T04:24:54.546Z,1.70
2022-11-29T04:27:49.329Z,1.70
2022-11-29T04:30:26.440Z,1.80
2022-11-29T04:33:16.710Z,1.70
2022-11-29T04:35:52.001Z,1.70
2022-11-29T04:38:49.668Z,1.70
2022-11-29T04:41:48.738Z,1.70
2022-11-29T04:44:26.394Z,1.80
2022-11-29T04:47:11.828Z,1.80
2022-11-29T04:50:04.389Z,1.90
2022-11-29T04:53:22.428Z,1.90
2022-11-29T04:56:13.307Z,1.90
2022-11-29T04:59:09.179Z,1.80
2022-11-29T05:02:11.049Z,1.70
2022-11-29T05:04:58.831Z,1.60
2022-11-29T05:07:57.094Z,1.60
2022-11-29T05:11:03.295Z,1.70
2022-11-29T05:13:45.535Z,1.80
2022-11-29T05:16:54.611Z,1.80
2022-11-29T05:20:08.800Z,1.80
2022-11-29T05:23:24.296Z,1.70
2022-11-29T05:26:24.840Z,1.70
2022-11-29T05:29:10.323Z,1.90
2022-11-29T05:32:23.228Z,1.90
2022-11-29T05:35:24.411Z,1.90
2022-11-29T05:38:13.685Z,2.00
2022-11-29T05:41:12.095Z,2.10
2022-11-29T05:44:17.529Z,2.10
2022-11-29T05:47:02.340Z,2.10
2022-11-29T05:49:54.178Z,2.10
2022-11-29T05:52:30.683Z,2.20
2022-11-29T05:55:42.711Z,2.30
2022-11-29T05:58:30.598Z,2.30
2022-11-29T06:01:14.545Z,2.40
2022-11-29T06:03:55.952Z,2.50
2022-11-29T06:06:47.206Z,2.50
2022-11-29T06:09:34.189Z,2.40
2022-11-29T06:12:25.158Z,2.50
2022-11-29T06:15:33.810Z,2.50
2022-11-29T06:18:25.127Z,2.50
2022-11-29T06:21:19.275Z,2.60
2022-11-29T06:24:26.154Z,2.60
2022-11-29T06:27:29.404Z,2.60
2022-11-29T06:30:20.945Z,2.50
2022-11-29T06:33:02.894Z,2.60
2022-11-29T06:35:51.955Z,2.60
2022-11-29T06:38:27.172Z,2.50
2022-11-29T06:41:01.829Z,2.50
2022-11-29T06:43:30.726Z,2.50
2022-11-29T06:46:12.764Z,2.50
2022-11-29T06:48:53.133Z,2.50
2022-11-29T06:52:27.556Z,2.50
2022-11-29T06:55:13.358Z,2.50
2022-11-29T06:58:19.997Z,2.50
2022-11-29T07:01:00.920Z,2.50
2022-11-29T07:03:47.510Z,2.50
2022-11-29T07:06:27.428Z,2.50
2022-11-29T07:09:00.734Z,2.50
2022-11-29T07:11:28.980Z,2.60
2022-11-29T07:13:56.327Z,2.60
2022-11-29T07:16:55.890Z,2.60
2022-11-29T07:19:46.137Z,2.60
2022-11-29T07:22:48.148Z,2.60
2022-11-29T07:25:31.993Z,2.60
2022-11-29T07:28:46.593Z,2.60
2022-11-29T07:31:16.461Z,2.70
2022-11-29T07:33:55.460Z,2.70
2022-11-29T07:36:45.618Z,2.70
2022-11-29T07:39:56.968Z,2.70
2022-11-29T07:43:08.283Z,2.70
2022-11-29T07:45:38.653Z,2.70
2022-11-29T07:48:06.975Z,2.70
2022-11-29T07:50:36.129Z,2.60
2022-11-29T07:53:03.482Z,2.50
2022-11-29T07:55:32.795Z,2.50
2022-11-29T07:57:59.752Z,2.60
2022-11-29T08:00:26.656Z,2.60
2022-11-29T08:02:53.748Z,2.70
2022-11-29T08:05:20.787Z,2.70
2022-11-29T08:07:47.822Z,2.80
2022-11-29T08:10:17.134Z,2.80
2022-11-29T08:12:47.427Z,2.90
2022-11-29T08:15:14.846Z,3.00
2022-11-29T08:17:42.017Z,3.00
2022-11-29T08:20:10.548Z,3.10
2022-11-29T08:22:37.769Z,3.10
2022-11-29T08:25:06.565Z,3.20
2022-11-29T08:27:38.666Z,3.30
2022-11-29T08:30:07.537Z,3.30
2022-11-29T08:32:35.183Z,3.40
2022-11-29T08:35:02.191Z,3.40
2022-11-29T08:37:29.111Z,3.40
2022-11-29T08:39:58.263Z,3.50
2022-11-29T08:42:25.300Z,3.60
2022-11-29T08:44:52.261Z,3.60
2022-11-29T08:47:37.130Z,3.70
2022-11-29T08:50:30.501Z,3.80
2022-11-29T08:53:16.893Z,4.00
2022-11-29T08:55:46.543Z,4.00
2022-11-29T08:58:15.618Z,4.10
2022-11-29T09:00:46.935Z,4.10
2022-11-29T09:03:32.361Z,4.20
2022-11-29T09:05:59.686Z,4.20
2022-11-29T09:08:26.629Z,4.30
2022-11-29T09:10:53.701Z,4.40
2022-11-29T09:13:20.853Z,4.50
2022-11-29T09:15:47.841Z,4.60
2022-11-29T09:18:14.783Z,4.50
2022-11-29T09:20:45.266Z,4.60
2022-11-29T09:23:15.181Z,4.70
2022-11-29T09:25:48.749Z,4.70
2022-11-29T09:28:15.950Z,4.70
2022-11-29T09:30:42.897Z,4.60
2022-11-29T09:33:09.813Z,4.60
2022-11-29T09:35:36.707Z,4.50
2022-11-29T09:38:03.649Z,4.50
2022-11-29T09:41:14.656Z,4.40
2022-11-29T09:44:05.309Z,4.40
2022-11-29T09:46:40.642Z,4.50
2022-11-29T09:49:22.215Z,4.60
2022-11-29T09:52:10.671Z,4.60
2022-11-29T09:55:12.218Z,4.70
2022-11-29T09:57:40.006Z,4.60
2022-11-29T10:00:16.984Z,4.70
2022-11-29T10:03:10.328Z,4.60
2022-11-29T10:05:47.527Z,4.60
2022-11-29T10:08:41.992Z,4.60
2022-11-29T10:11:23.865Z,4.60
2022-11-29T10:14:06.014Z,4.80
2022-11-29T10:17:00.534Z,4.90
2022-11-29T10:19:42.543Z,5.00
2022-11-29T10:22:23.358Z,5.00
2022-11-29T10:24:57.589Z,4.90
2022-11-29T10:27:28.066Z,4.90
2022-11-29T10:29:56.033Z,5.00
2022-11-29T10:32:25.685Z,5.10
2022-11-29T10:34:52.748Z,5.10
2022-11-29T10:37:22.015Z,5.00
2022-11-29T10:40:00.040Z,5.10
2022-11-29T10:42:47.561Z,5.10
2022-11-29T10:45:37.757Z,5.30
2022-11-29T10:48:18.123Z,5.30
2022-11-29T10:50:48.739Z,5.30
2022-11-29T10:53:25.005Z,5.30
2022-11-29T10:56:08.984Z,5.30
2022-11-29T10:58:36.696Z,5.30
2022-11-29T11:01:07.405Z,5.20
2022-11-29T11:03:48.975Z,5.20
2022-11-29T11:06:19.774Z,5.30
2022-11-29T11:08:52.731Z,5.40
2022-11-29T11:11:32.202Z,5.40
2022-11-29T11:14:20.654Z,5.50
2022-11-29T11:16:47.639Z,5.40
2022-11-29T11:19:34.591Z,5.50
2022-11-29T11:22:03.993Z,5.50
2022-11-29T11:24:36.585Z,5.40
2022-11-29T11:27:04.168Z,5.50
2022-11-29T11:29:43.959Z,5.60
2022-11-29T11:32:20.805Z,5.60
2022-11-29T11:34:57.800Z,5.70
2022-11-29T11:37:33.348Z,5.70
2022-11-29T11:40:29.211Z,5.70
2022-11-29T11:42:59.681Z,5.80
2022-11-29T11:45:36.559Z,5.80
2022-11-29T11:48:12.629Z,5.80
2022-11-29T11:50:50.373Z,5.90
2022-11-29T11:53:36.388Z,5.90
2022-11-29T11:56:08.717Z,5.90
2022-11-29T11:58:58.450Z,6.10
2022-11-29T12:01:27.245Z,6.20
2022-11-29T12:04:16.797Z,6.30
2022-11-29T12:06:55.541Z,6.30
2022-11-29T12:09:47.773Z,6.20
2022-11-29T12:12:31.349Z,6.30
2022-11-29T12:15:16.345Z,6.40
2022-11-29T12:17:58.020Z,6.40
2022-11-29T12:20:53.246Z,6.50
2022-11-29T12:23:53.944Z,6.40
2022-11-29T12:29:24.351Z,6.40
2022-11-29T12:32:15.726Z,6.50
2022-11-29T12:35:00.021Z,6.40
2022-11-29T12:37:39.285Z,6.40
2022-11-29T12:40:36.567Z,6.50
2022-11-29T12:43:39.314Z,6.50
2022-11-29T12:46:24.280Z,6.50
2022-11-29T12:49:31.795Z,6.70
2022-11-29T12:52:23.947Z,6.70
2022-11-29T12:55:28.592Z,6.70
2022-11-29T12:58:27.787Z,6.70
2022-11-29T13:01:46.214Z,6.70
2022-11-29T13:05:11.658Z,6.60
2022-11-29T13:08:18.365Z,6.70
2022-11-29T13:11:19.212Z,6.80
2022-11-29T13:14:43.601Z,6.80
2022-11-29T13:17:31.632Z,6.90
2022-11-29T13:20:22.848Z,6.90
2022-11-29T13:23:39.181Z,6.80
2022-11-29T13:26:12.516Z,6.80
2022-11-29T13:28:43.009Z,6.70
2022-11-29T13:31:16.652Z,6.70
2022-11-29T13:34:07.616Z,6.80
2022-11-29T13:37:04.794Z,6.80
2022-11-29T13:39:46.633Z,6.90
2022-11-29T13:42:49.727Z,7.00
2022-11-29T13:45:22.815Z,7.10
2022-11-29T13:48:01.933Z,7.10
2022-11-29T13:50:36.433Z,7.10
2022-11-29T13:53:24.805Z,7.20
2022-11-29T13:56:01.954Z,7.20
2022-11-29T13:58:28.897Z,7.20
2022-11-29T14:01:12.474Z,7.10
2022-11-29T14:03:45.104Z,7.10
2022-11-29T14:06:24.629Z,7.10
2022-11-29T14:12:25.321Z,7.00
2022-11-29T14:14:57.100Z,7.00
2022-11-29T14:17:47.486Z,6.90
2022-11-29T14:20:23.374Z,7.00
2022-11-29T14:23:05.302Z,7.00
2022-11-29T14:25:51.083Z,6.90
2022-11-29T14:28:18.289Z,7.00
2022-11-29T14:30:46.733Z,7.00
2022-11-29T14:33:34.275Z,7.00
2022-11-29T14:36:21.829Z,7.00
2022-11-29T14:39:26.596Z,6.90
2022-11-29T14:42:19.752Z,6.90
2022-11-29T14:44:53.151Z,6.90
2022-11-29T14:47:37.117Z,6.90
2022-11-29T14:50:08.967Z,6.90
2022-11-29T14:52:52.123Z,7.00
2022-11-29T14:55:36.586Z,6.90
2022-11-29T14:58:26.542Z,6.90
2022-11-29T15:01:03.850Z,6.90
2022-11-29T15:03:47.321Z,7.00
2022-11-29T15:06:31.350Z,6.90
2022-11-29T15:09:05.888Z,6.90
2022-11-29T15:12:08.703Z,6.90
2022-11-29T15:15:24.364Z,6.90
2022-11-29T15:18:07.000Z,6.90
2022-11-29T15:20:58.101Z,6.90
2022-11-29T15:23:25.041Z,6.80
2022-11-29T15:25:55.060Z,6.90
2022-11-29T15:28:28.909Z,6.80
2022-11-29T15:31:12.091Z,6.80
2022-11-29T15:33:45.224Z,6.80
2022-11-29T15:36:17.511Z,6.80
2022-11-29T15:38:54.153Z,6.80
2022-11-29T15:41:27.624Z,6.80
2022-11-29T15:43:59.811Z,6.80
2022-11-29T15:46:29.927Z,6.80
2022-11-29T15:49:23.170Z,6.80
2022-11-29T15:51:57.024Z,6.70
2022-11-29T15:54:46.141Z,6.70
2022-11-29T15:57:25.850Z,6.60
2022-11-29T16:00:04.089Z,6.60
2022-11-29T16:02:37.204Z,6.60
2022-11-29T16:05:18.336Z,6.50
2022-11-29T16:07:48.145Z,6.50
2022-11-29T16:10:19.828Z,6.50
2022-11-29T16:12:59.583Z,6.50
2022-11-29T16:15:34.971Z,6.50
2022-11-29T16:18:21.101Z,6.50
2022-11-29T16:21:03.015Z,6.40
2022-11-29T16:23:42.262Z,6.40
2022-11-29T16:26:22.470Z,6.40
2022-11-29T16:28:53.691Z,6.40
2022-11-29T16:31:27.859Z,6.40
2022-11-29T16:33:55.074Z,6.50
2022-11-29T16:36:26.854Z,6.40
2022-11-29T16:39:00.822Z,6.40
2022-11-29T16:41:38.328Z,6.40
2022-11-29T16:44:46.960Z,6.40
2022-11-29T16:47:24.931Z,6.30
2022-11-29T16:50:21.343Z,6.30
2022-11-29T16:52:54.856Z,6.30
2022-11-29T16:55:23.985Z,6.30
2022-11-29T16:57:52.105Z,6.20
2022-11-29T17:00:31.608Z,6.20
2022-11-29T17:02:59.702Z,6.10
2022-11-29T17:05:29.535Z,6.10
2022-11-29T17:07:56.776Z,6.10
2022-11-29T17:10:25.795Z,6.10
2022-11-29T17:12:52.839Z,6.20
2022-11-29T17:15:19.916Z,6.20
2022-11-29T17:17:46.901Z,6.20
2022-11-29T17:20:14.266Z,6.00
2022-11-29T17:22:41.628Z,6.00
2022-11-29T17:25:09.663Z,6.00
2022-11-29T17:27:37.076Z,6.00
2022-11-29T17:30:09.190Z,6.10
2022-11-29T17:32:36.145Z,6.00
2022-11-29T17:35:03.294Z,6.00
2022-11-29T17:37:31.010Z,5.90
2022-11-29T17:39:58.003Z,5.80
2022-11-29T17:42:25.005Z,5.80
2022-11-29T17:44:51.946Z,5.70
2022-11-29T17:47:18.889Z,5.70
2022-11-29T17:49:46.269Z,5.70
2022-11-29T17:52:13.328Z,5.70
2022-11-29T17:54:40.312Z,5.70
2022-11-29T17:57:07.257Z,5.70
2022-11-29T17:59:34.223Z,5.70
2022-11-29T18:02:02.259Z,5.70
2022-11-29T18:04:29.392Z,5.70
2022-11-29T18:06:56.481Z,5.70
2022-11-29T18:09:23.365Z,5.60
2022-11-29T18:11:50.852Z,5.60
2022-11-29T18:14:23.824Z,5.60
2022-11-29T18:16:52.329Z,5.60
2022-11-29T18:19:22.226Z,5.60
2022-11-29T18:21:50.432Z,5.50
2022-11-29T18:24:17.950Z,5.30
2022-11-29T18:26:52.101Z,5.30
2022-11-29T18:29:19.296Z,5.30
2022-11-29T18:31:47.122Z,5.30
2022-11-29T18:34:14.957Z,5.30
2022-11-29T18:36:46.110Z,5.40
2022-11-29T18:39:19.018Z,5.50
2022-11-29T18:41:50.374Z,5.50
2022-11-29T18:44:21.414Z,5.60
2022-11-29T18:46:48.745Z,5.60
2022-11-29T18:49:17.782Z,5.60
2022-11-29T18:51:46.433Z,5.60
2022-11-29T18:54:18.110Z,5.60
2022-11-29T18:56:46.277Z,5.50
2022-11-29T18:59:19.581Z,5.50
2022-11-29T19:01:48.468Z,5.50
2022-11-29T19:04:19.929Z,5.40
2022-11-29T19:06:48.054Z,5.40
2022-11-29T19:09:21.100Z,5.50
2022-11-29T19:11:49.640Z,5.50
2022-11-29T19:14:16.765Z,5.50
2022-11-29T19:16:46.509Z,5.50
2022-11-29T19:19:13.600Z,5.50
2022-11-29T19:21:41.398Z,5.60
2022-11-29T19:24:15.934Z,5.50
2022-11-29T19:26:46.137Z,5.50
2022-11-29T19:29:14.188Z,5.50
2022-11-29T19:31:42.327Z,5.50
2022-11-29T19:34:09.373Z,5.50
2022-11-29T19:36:42.409Z,5.50
2022-11-29T19:39:11.637Z,5.40
2022-11-29T19:41:38.689Z,5.50
2022-11-29T19:44:08.092Z,5.50
2022-11-29T19:46:45.850Z,5.40
2022-11-29T19:49:13.161Z,5.40
2022-11-29T19:51:40.262Z,5.30
2022-11-29T19:54:09.665Z,5.30
2022-11-29T19:56:37.057Z,5.30
2022-11-29T19:59:04.092Z,5.30
2022-11-29T20:01:40.212Z,5.30
2022-11-29T20:04:09.808Z,5.30
2022-11-29T20:06:37.136Z,5.20
2022-11-29T20:09:04.302Z,5.30
2022-11-29T20:11:34.517Z,5.30
2022-11-29T20:14:03.407Z,5.40
2022-11-29T20:16:31.987Z,5.30
2022-11-29T20:18:59.367Z,5.30
2022-11-29T20:21:31.243Z,5.30
2022-11-29T20:24:07.790Z,5.30
2022-11-29T20:26:38.466Z,5.30
2022-11-29T20:29:08.323Z,5.20
2022-11-29T20:31:37.307Z,5.20
2022-11-29T20:34:05.245Z,5.20
2022-11-29T20:37:22.144Z,5.10
2022-11-29T20:40:00.224Z,5.10
2022-11-29T20:42:36.014Z,5.10
2022-11-29T20:45:08.690Z,5.10
2022-11-29T20:48:19.186Z,5.10
2022-11-29T20:50:57.415Z,5.00
2022-11-29T20:53:36.679Z,5.00
2022-11-29T20:56:06.094Z,5.10
2022-11-29T20:58:33.571Z,5.10
2022-11-29T21:01:00.802Z,5.10
2022-11-29T21:03:29.024Z,5.10
2022-11-29T21:05:56.756Z,5.10
2022-11-29T21:08:26.592Z,5.10
2022-11-29T21:10:54.680Z,5.10
2022-11-29T21:13:23.648Z,5.00
2022-11-29T21:15:53.451Z,5.10
2022-11-29T21:18:27.285Z,5.10
2022-11-29T21:21:24.463Z,5.00
2022-11-29T21:24:01.477Z,5.00
2022-11-29T21:26:45.476Z,5.00
2022-11-29T21:29:19.277Z,5.00
2022-11-29T21:31:52.462Z,4.90
2022-11-29T21:34:20.730Z,5.00
2022-11-29T21:36:58.462Z,5.00
2022-11-29T21:39:39.501Z,5.00
2022-11-29T21:42:09.247Z,5.00
2022-11-29T21:44:36.206Z,5.00
2022-11-29T21:47:03.306Z,5.00
2022-11-29T21:49:35.438Z,5.00
2022-11-29T21:52:02.468Z,5.00
2022-11-29T21:54:29.937Z,5.00
2022-11-29T21:56:56.892Z,5.00
2022-11-29T21:59:29.722Z,5.00
2022-11-29T22:01:58.443Z,5.10
2022-11-29T22:04:26.276Z,5.00
2022-11-29T22:06:55.313Z,5.00
2022-11-29T22:09:22.374Z,5.00
2022-11-29T22:11:52.092Z,5.10
2022-11-29T22:14:20.433Z,5.10
2022-11-29T22:16:58.829Z,5.10
2022-11-29T22:19:34.991Z,5.10
2022-11-29T22:22:05.624Z,5.20
2022-11-29T22:24:35.183Z,5.20
2022-11-29T22:27:02.833Z,5.20
2022-11-29T22:29:29.776Z,5.20
2022-11-29T22:32:00.347Z,5.20
2022-11-29T22:34:28.106Z,5.20
2022-11-29T22:36:58.666Z,5.20
2022-11-29T22:39:25.705Z,5.20
2022-11-29T22:41:54.964Z,5.20
2022-11-29T22:44:27.340Z,5.20
2022-11-29T22:46:54.393Z,5.20
2022-11-29T22:49:21.731Z,5.20
2022-11-29T22:51:50.059Z,5.20
2022-11-29T22:54:17.972Z,5.20
2022-11-29T22:56:45.974Z,5.20
2022-11-29T22:59:14.243Z,5.20
2022-11-29T23:01:42.418Z,5.20
2022-11-29T23:04:11.505Z,5.20
2022-11-29T23:06:44.086Z,5.20
2022-11-29T23:09:22.073Z,5.20
2022-11-29T23:11:55.799Z,5.20
2022-11-29T23:14:23.846Z,5.20
2022-11-29T23:16:51.221Z,5.20
2022-11-29T23:19:18.430Z,5.20
2022-11-29T23:21:49.354Z,5.20
2022-11-29T23:24:16.378Z,5.10
2022-11-29T23:26:46.483Z,5.20
2022-11-29T23:29:17.351Z,5.20
2022-11-29T23:31:44.508Z,5.20
2022-11-29T23:34:11.644Z,5.20
2022-11-29T23:36:38.614Z,5.20
2022-11-29T23:39:06.697Z,5.20
2022-11-29T23:41:36.205Z,5.20
2022-11-29T23:44:05.256Z,5.20
2022-11-29T23:46:32.977Z,5.30
2022-11-29T23:48:59.898Z,5.30
2022-11-29T23:51:26.962Z,5.20
2022-11-29T23:53:54.575Z,5.30
2022-11-29T23:56:22.721Z,5.30
2022-11-29T23:58:50.253Z,5.30
